sensor_id;sensor_type;location;lat;lon;timestamp;P1;durP1;ratioP1;P2;durP2;ratioP2
75400;SDS011;63974;47.538;18.972;2023-06-10T00:00:45;8.93;;;4.90;;
75400;SDS011;63974;47.538;18.972;2023-06-10T00:03:49;8.90;;;5.60;;
75400;SDS011;63974;47.538;18.972;2023-06-10T00:06:54;14.27;;;5.88;;
75400;SDS011;63974;47.538;18.972;2023-06-10T00:09:57;12.32;;;5.78;;
75400;SDS011;63974;47.538;18.972;2023-06-10T00:13:00;8.25;;;5.95;;
75400;SDS011;63974;47.538;18.972;2023-06-10T00:16:05;8.20;;;5.18;;
75400;SDS011;63974;47.538;18.972;2023-06-10T00:19:08;10.00;;;4.80;;
75400;SDS011;63974;47.538;18.972;2023-06-10T00:22:10;11.07;;;4.90;;
75400;SDS011;63974;47.538;18.972;2023-06-10T00:25:14;8.10;;;5.03;;
75400;SDS011;63974;47.538;18.972;2023-06-10T00:28:17;8.00;;;4.47;;
75400;SDS011;63974;47.538;18.972;2023-06-10T00:31:19;7.88;;;4.70;;
75400;SDS011;63974;47.538;18.972;2023-06-10T00:34:23;12.30;;;4.97;;
75400;SDS011;63974;47.538;18.972;2023-06-10T00:37:26;8.23;;;5.07;;
75400;SDS011;63974;47.538;18.972;2023-06-10T00:40:33;10.05;;;4.60;;
75400;SDS011;63974;47.538;18.972;2023-06-10T00:43:41;8.77;;;4.75;;
75400;SDS011;63974;47.538;18.972;2023-06-10T00:46:43;7.97;;;5.10;;
75400;SDS011;63974;47.538;18.972;2023-06-10T00:49:47;10.27;;;5.57;;
75400;SDS011;63974;47.538;18.972;2023-06-10T00:52:51;16.45;;;5.90;;
75400;SDS011;63974;47.538;18.972;2023-06-10T00:55:57;12.70;;;6.70;;
75400;SDS011;63974;47.538;18.972;2023-06-10T00:59:00;13.02;;;7.35;;
75400;SDS011;63974;47.538;18.972;2023-06-10T01:02:03;13.98;;;6.45;;
75400;SDS011;63974;47.538;18.972;2023-06-10T01:05:06;6.57;;;4.53;;
75400;SDS011;63974;47.538;18.972;2023-06-10T01:11:28;7.57;;;4.25;;
75400;SDS011;63974;47.538;18.972;2023-06-10T01:14:36;10.95;;;5.10;;
75400;SDS011;63974;47.538;18.972;2023-06-10T01:17:56;17.70;;;5.35;;
75400;SDS011;63974;47.538;18.972;2023-06-10T01:21:13;9.80;;;5.67;;
75400;SDS011;63974;47.538;18.972;2023-06-10T01:24:22;9.00;;;4.63;;
75400;SDS011;63974;47.538;18.972;2023-06-10T01:27:26;9.90;;;4.50;;
75400;SDS011;63974;47.538;18.972;2023-06-10T01:30:36;9.38;;;5.15;;
75400;SDS011;63974;47.538;18.972;2023-06-10T01:33:51;14.93;;;4.78;;
75400;SDS011;63974;47.538;18.972;2023-06-10T01:36:55;7.03;;;4.07;;
75400;SDS011;63974;47.538;18.972;2023-06-10T01:40:00;14.93;;;4.60;;
75400;SDS011;63974;47.538;18.972;2023-06-10T01:43:10;10.35;;;4.75;;
75400;SDS011;63974;47.538;18.972;2023-06-10T01:46:14;8.57;;;4.28;;
75400;SDS011;63974;47.538;18.972;2023-06-10T01:49:18;10.32;;;4.45;;
75400;SDS011;63974;47.538;18.972;2023-06-10T01:52:21;7.77;;;4.30;;
75400;SDS011;63974;47.538;18.972;2023-06-10T01:55:24;11.27;;;4.65;;
75400;SDS011;63974;47.538;18.972;2023-06-10T01:58:26;9.85;;;4.72;;
75400;SDS011;63974;47.538;18.972;2023-06-10T02:01:30;10.50;;;5.18;;
75400;SDS011;63974;47.538;18.972;2023-06-10T02:04:33;9.13;;;4.33;;
75400;SDS011;63974;47.538;18.972;2023-06-10T02:07:37;10.57;;;4.90;;
75400;SDS011;63974;47.538;18.972;2023-06-10T02:10:40;8.88;;;4.07;;
75400;SDS011;63974;47.538;18.972;2023-06-10T02:13:43;7.97;;;4.68;;
75400;SDS011;63974;47.538;18.972;2023-06-10T02:16:46;8.75;;;4.50;;
75400;SDS011;63974;47.538;18.972;2023-06-10T02:19:49;9.60;;;4.70;;
75400;SDS011;63974;47.538;18.972;2023-06-10T02:22:56;10.70;;;4.37;;
75400;SDS011;63974;47.538;18.972;2023-06-10T02:25:59;10.90;;;4.70;;
75400;SDS011;63974;47.538;18.972;2023-06-10T02:29:02;10.93;;;4.72;;
75400;SDS011;63974;47.538;18.972;2023-06-10T02:32:06;11.43;;;4.38;;
75400;SDS011;63974;47.538;18.972;2023-06-10T02:35:12;8.52;;;4.60;;
75400;SDS011;63974;47.538;18.972;2023-06-10T02:38:19;7.90;;;4.10;;
75400;SDS011;63974;47.538;18.972;2023-06-10T02:41:22;8.50;;;4.68;;
75400;SDS011;63974;47.538;18.972;2023-06-10T02:44:28;8.30;;;4.15;;
75400;SDS011;63974;47.538;18.972;2023-06-10T02:47:31;13.88;;;5.32;;
75400;SDS011;63974;47.538;18.972;2023-06-10T02:50:35;8.07;;;4.65;;
75400;SDS011;63974;47.538;18.972;2023-06-10T02:53:47;9.83;;;4.20;;
75400;SDS011;63974;47.538;18.972;2023-06-10T02:56:51;9.18;;;5.28;;
75400;SDS011;63974;47.538;18.972;2023-06-10T02:59:58;11.75;;;5.03;;
75400;SDS011;63974;47.538;18.972;2023-06-10T03:03:02;8.55;;;5.03;;
75400;SDS011;63974;47.538;18.972;2023-06-10T03:06:10;9.60;;;5.80;;
75400;SDS011;63974;47.538;18.972;2023-06-10T03:09:13;10.47;;;5.20;;
75400;SDS011;63974;47.538;18.972;2023-06-10T03:12:18;9.18;;;5.05;;
75400;SDS011;63974;47.538;18.972;2023-06-10T03:15:23;8.38;;;4.85;;
75400;SDS011;63974;47.538;18.972;2023-06-10T03:18:27;9.70;;;5.45;;
75400;SDS011;63974;47.538;18.972;2023-06-10T03:21:31;11.60;;;4.70;;
75400;SDS011;63974;47.538;18.972;2023-06-10T03:24:35;11.70;;;4.93;;
75400;SDS011;63974;47.538;18.972;2023-06-10T03:27:41;11.43;;;5.28;;
75400;SDS011;63974;47.538;18.972;2023-06-10T03:30:46;8.70;;;4.90;;
75400;SDS011;63974;47.538;18.972;2023-06-10T03:33:49;8.73;;;4.40;;
75400;SDS011;63974;47.538;18.972;2023-06-10T03:36:53;9.73;;;4.70;;
75400;SDS011;63974;47.538;18.972;2023-06-10T03:39:56;9.30;;;5.20;;
75400;SDS011;63974;47.538;18.972;2023-06-10T03:43:00;8.52;;;4.32;;
75400;SDS011;63974;47.538;18.972;2023-06-10T03:46:04;11.68;;;4.80;;
75400;SDS011;63974;47.538;18.972;2023-06-10T03:49:08;8.32;;;4.38;;
75400;SDS011;63974;47.538;18.972;2023-06-10T03:52:12;9.52;;;4.75;;
75400;SDS011;63974;47.538;18.972;2023-06-10T03:55:15;10.33;;;5.40;;
75400;SDS011;63974;47.538;18.972;2023-06-10T03:58:20;9.00;;;4.85;;
75400;SDS011;63974;47.538;18.972;2023-06-10T04:01:23;11.02;;;4.60;;
75400;SDS011;63974;47.538;18.972;2023-06-10T04:04:27;7.78;;;4.22;;
75400;SDS011;63974;47.538;18.972;2023-06-10T04:07:29;7.80;;;4.05;;
75400;SDS011;63974;47.538;18.972;2023-06-10T04:10:33;8.00;;;4.50;;
75400;SDS011;63974;47.538;18.972;2023-06-10T04:13:36;9.07;;;4.50;;
75400;SDS011;63974;47.538;18.972;2023-06-10T04:16:41;8.95;;;4.72;;
75400;SDS011;63974;47.538;18.972;2023-06-10T04:19:46;9.38;;;4.53;;
75400;SDS011;63974;47.538;18.972;2023-06-10T04:22:49;7.45;;;4.72;;
75400;SDS011;63974;47.538;18.972;2023-06-10T04:25:52;8.43;;;5.50;;
75400;SDS011;63974;47.538;18.972;2023-06-10T04:28:55;8.65;;;5.15;;
75400;SDS011;63974;47.538;18.972;2023-06-10T04:31:58;7.97;;;5.15;;
75400;SDS011;63974;47.538;18.972;2023-06-10T04:35:02;8.77;;;4.90;;
75400;SDS011;63974;47.538;18.972;2023-06-10T04:38:05;9.43;;;4.88;;
75400;SDS011;63974;47.538;18.972;2023-06-10T04:41:07;11.77;;;5.80;;
75400;SDS011;63974;47.538;18.972;2023-06-10T04:44:12;10.10;;;5.68;;
75400;SDS011;63974;47.538;18.972;2023-06-10T04:47:16;9.00;;;5.35;;
75400;SDS011;63974;47.538;18.972;2023-06-10T04:50:20;8.82;;;5.70;;
75400;SDS011;63974;47.538;18.972;2023-06-10T04:53:23;9.77;;;5.57;;
75400;SDS011;63974;47.538;18.972;2023-06-10T04:56:26;9.70;;;5.80;;
75400;SDS011;63974;47.538;18.972;2023-06-10T04:59:29;7.55;;;5.43;;
75400;SDS011;63974;47.538;18.972;2023-06-10T05:02:32;9.65;;;5.50;;
75400;SDS011;63974;47.538;18.972;2023-06-10T05:05:35;8.30;;;5.82;;
75400;SDS011;63974;47.538;18.972;2023-06-10T05:08:38;8.70;;;5.60;;
75400;SDS011;63974;47.538;18.972;2023-06-10T05:11:40;8.90;;;5.30;;
75400;SDS011;63974;47.538;18.972;2023-06-10T05:14:43;9.68;;;5.57;;
75400;SDS011;63974;47.538;18.972;2023-06-10T05:17:47;9.95;;;5.35;;
75400;SDS011;63974;47.538;18.972;2023-06-10T05:20:50;7.82;;;5.50;;
75400;SDS011;63974;47.538;18.972;2023-06-10T05:23:53;8.13;;;5.90;;
75400;SDS011;63974;47.538;18.972;2023-06-10T05:26:57;11.57;;;5.77;;
75400;SDS011;63974;47.538;18.972;2023-06-10T05:29:59;13.57;;;6.97;;
75400;SDS011;63974;47.538;18.972;2023-06-10T05:33:03;10.60;;;6.30;;
75400;SDS011;63974;47.538;18.972;2023-06-10T05:36:07;10.50;;;6.88;;
75400;SDS011;63974;47.538;18.972;2023-06-10T05:39:10;11.27;;;6.40;;
75400;SDS011;63974;47.538;18.972;2023-06-10T05:42:13;11.40;;;6.10;;
75400;SDS011;63974;47.538;18.972;2023-06-10T05:45:15;9.57;;;5.97;;
75400;SDS011;63974;47.538;18.972;2023-06-10T05:48:18;10.40;;;6.32;;
75400;SDS011;63974;47.538;18.972;2023-06-10T05:51:22;12.25;;;7.13;;
75400;SDS011;63974;47.538;18.972;2023-06-10T05:54:25;11.73;;;6.90;;
75400;SDS011;63974;47.538;18.972;2023-06-10T05:57:31;10.23;;;6.80;;
75400;SDS011;63974;47.538;18.972;2023-06-10T06:00:34;10.48;;;6.70;;
75400;SDS011;63974;47.538;18.972;2023-06-10T06:03:39;10.93;;;7.13;;
75400;SDS011;63974;47.538;18.972;2023-06-10T06:06:42;11.43;;;7.22;;
75400;SDS011;63974;47.538;18.972;2023-06-10T06:09:45;10.77;;;7.65;;
75400;SDS011;63974;47.538;18.972;2023-06-10T06:12:48;11.00;;;6.37;;
75400;SDS011;63974;47.538;18.972;2023-06-10T06:15:51;11.98;;;8.05;;
75400;SDS011;63974;47.538;18.972;2023-06-10T06:18:53;10.13;;;7.40;;
75400;SDS011;63974;47.538;18.972;2023-06-10T06:21:56;11.52;;;6.93;;
75400;SDS011;63974;47.538;18.972;2023-06-10T06:24:59;10.48;;;6.95;;
75400;SDS011;63974;47.538;18.972;2023-06-10T06:28:02;10.87;;;6.40;;
75400;SDS011;63974;47.538;18.972;2023-06-10T06:31:05;11.85;;;7.68;;
75400;SDS011;63974;47.538;18.972;2023-06-10T06:34:09;11.70;;;7.90;;
75400;SDS011;63974;47.538;18.972;2023-06-10T06:37:12;12.05;;;7.10;;
75400;SDS011;63974;47.538;18.972;2023-06-10T06:40:17;12.07;;;7.70;;
75400;SDS011;63974;47.538;18.972;2023-06-10T06:43:19;10.73;;;7.23;;
75400;SDS011;63974;47.538;18.972;2023-06-10T06:46:51;11.25;;;7.63;;
75400;SDS011;63974;47.538;18.972;2023-06-10T06:49:54;13.82;;;8.60;;
75400;SDS011;63974;47.538;18.972;2023-06-10T06:52:57;15.10;;;8.45;;
75400;SDS011;63974;47.538;18.972;2023-06-10T06:56:00;13.77;;;9.07;;
75400;SDS011;63974;47.538;18.972;2023-06-10T06:59:02;15.43;;;9.40;;
75400;SDS011;63974;47.538;18.972;2023-06-10T07:02:06;13.10;;;8.70;;
75400;SDS011;63974;47.538;18.972;2023-06-10T07:05:09;12.13;;;8.38;;
75400;SDS011;63974;47.538;18.972;2023-06-10T07:08:13;13.40;;;9.13;;
75400;SDS011;63974;47.538;18.972;2023-06-10T07:11:16;12.35;;;8.65;;
75400;SDS011;63974;47.538;18.972;2023-06-10T07:14:20;12.67;;;8.37;;
75400;SDS011;63974;47.538;18.972;2023-06-10T07:17:22;13.57;;;8.98;;
75400;SDS011;63974;47.538;18.972;2023-06-10T07:20:25;21.05;;;9.68;;
75400;SDS011;63974;47.538;18.972;2023-06-10T07:23:28;15.27;;;8.88;;
75400;SDS011;63974;47.538;18.972;2023-06-10T07:26:31;17.13;;;10.60;;
75400;SDS011;63974;47.538;18.972;2023-06-10T07:29:34;15.23;;;9.57;;
75400;SDS011;63974;47.538;18.972;2023-06-10T07:32:38;13.85;;;9.60;;
75400;SDS011;63974;47.538;18.972;2023-06-10T07:35:40;15.35;;;9.50;;
75400;SDS011;63974;47.538;18.972;2023-06-10T07:38:46;15.13;;;8.88;;
75400;SDS011;63974;47.538;18.972;2023-06-10T07:41:49;18.08;;;9.25;;
75400;SDS011;63974;47.538;18.972;2023-06-10T07:44:52;13.47;;;9.07;;
75400;SDS011;63974;47.538;18.972;2023-06-10T07:47:55;15.07;;;9.70;;
75400;SDS011;63974;47.538;18.972;2023-06-10T07:50:58;12.25;;;8.27;;
75400;SDS011;63974;47.538;18.972;2023-06-10T07:54:01;14.45;;;8.90;;
75400;SDS011;63974;47.538;18.972;2023-06-10T07:57:03;14.90;;;9.53;;
75400;SDS011;63974;47.538;18.972;2023-06-10T08:00:07;11.80;;;8.27;;
75400;SDS011;63974;47.538;18.972;2023-06-10T08:03:16;12.40;;;8.43;;
75400;SDS011;63974;47.538;18.972;2023-06-10T08:06:19;11.88;;;7.88;;
75400;SDS011;63974;47.538;18.972;2023-06-10T08:09:22;10.10;;;6.80;;
75400;SDS011;63974;47.538;18.972;2023-06-10T08:12:25;10.60;;;7.05;;
75400;SDS011;63974;47.538;18.972;2023-06-10T08:15:28;10.53;;;7.13;;
75400;SDS011;63974;47.538;18.972;2023-06-10T08:18:31;10.18;;;7.18;;
75400;SDS011;63974;47.538;18.972;2023-06-10T08:21:34;7.25;;;4.95;;
75400;SDS011;63974;47.538;18.972;2023-06-10T08:24:39;7.85;;;5.53;;
75400;SDS011;63974;47.538;18.972;2023-06-10T08:27:42;6.47;;;4.38;;
75400;SDS011;63974;47.538;18.972;2023-06-10T08:30:45;6.87;;;5.30;;
75400;SDS011;63974;47.538;18.972;2023-06-10T08:33:47;7.78;;;5.40;;
75400;SDS011;63974;47.538;18.972;2023-06-10T08:36:50;6.90;;;4.88;;
75400;SDS011;63974;47.538;18.972;2023-06-10T08:39:57;7.45;;;5.13;;
75400;SDS011;63974;47.538;18.972;2023-06-10T08:43:02;5.77;;;4.20;;
75400;SDS011;63974;47.538;18.972;2023-06-10T08:46:09;6.13;;;4.43;;
75400;SDS011;63974;47.538;18.972;2023-06-10T08:49:14;4.15;;;3.70;;
75400;SDS011;63974;47.538;18.972;2023-06-10T08:52:20;4.57;;;3.35;;
75400;SDS011;63974;47.538;18.972;2023-06-10T08:55:27;4.40;;;3.50;;
75400;SDS011;63974;47.538;18.972;2023-06-10T08:58:35;5.10;;;4.20;;
75400;SDS011;63974;47.538;18.972;2023-06-10T09:01:44;6.00;;;4.00;;
75400;SDS011;63974;47.538;18.972;2023-06-10T09:04:47;5.15;;;4.00;;
75400;SDS011;63974;47.538;18.972;2023-06-10T09:07:52;4.68;;;3.60;;
75400;SDS011;63974;47.538;18.972;2023-06-10T09:10:55;4.03;;;3.53;;
75400;SDS011;63974;47.538;18.972;2023-06-10T09:13:57;4.20;;;3.33;;
75400;SDS011;63974;47.538;18.972;2023-06-10T09:17:01;3.50;;;3.20;;
75400;SDS011;63974;47.538;18.972;2023-06-10T09:20:04;4.18;;;3.58;;
75400;SDS011;63974;47.538;18.972;2023-06-10T09:23:10;4.10;;;3.70;;
75400;SDS011;63974;47.538;18.972;2023-06-10T09:26:14;4.80;;;3.97;;
75400;SDS011;63974;47.538;18.972;2023-06-10T09:29:17;4.07;;;3.67;;
75400;SDS011;63974;47.538;18.972;2023-06-10T09:32:20;3.50;;;3.20;;
75400;SDS011;63974;47.538;18.972;2023-06-10T09:35:24;3.90;;;3.20;;
75400;SDS011;63974;47.538;18.972;2023-06-10T09:38:31;3.20;;;2.90;;
75400;SDS011;63974;47.538;18.972;2023-06-10T09:41:35;3.08;;;2.78;;
75400;SDS011;63974;47.538;18.972;2023-06-10T09:44:41;4.30;;;3.05;;
75400;SDS011;63974;47.538;18.972;2023-06-10T09:47:45;3.47;;;2.60;;
75400;SDS011;63974;47.538;18.972;2023-06-10T09:50:49;3.55;;;2.22;;
75400;SDS011;63974;47.538;18.972;2023-06-10T09:53:52;3.25;;;2.55;;
75400;SDS011;63974;47.538;18.972;2023-06-10T09:56:56;2.80;;;2.42;;
75400;SDS011;63974;47.538;18.972;2023-06-10T10:00:19;3.60;;;2.20;;
75400;SDS011;63974;47.538;18.972;2023-06-10T10:03:24;2.63;;;2.33;;
75400;SDS011;63974;47.538;18.972;2023-06-10T10:06:26;3.13;;;2.83;;
75400;SDS011;63974;47.538;18.972;2023-06-10T10:09:30;3.20;;;2.90;;
75400;SDS011;63974;47.538;18.972;2023-06-10T10:12:38;3.42;;;3.13;;
75400;SDS011;63974;47.538;18.972;2023-06-10T10:15:42;3.60;;;3.10;;
75400;SDS011;63974;47.538;18.972;2023-06-10T10:18:54;3.03;;;2.57;;
75400;SDS011;63974;47.538;18.972;2023-06-10T10:22:07;3.40;;;3.10;;
75400;SDS011;63974;47.538;18.972;2023-06-10T10:25:16;3.17;;;2.90;;
75400;SDS011;63974;47.538;18.972;2023-06-10T10:28:24;2.70;;;2.50;;
75400;SDS011;63974;47.538;18.972;2023-06-10T10:31:32;3.40;;;2.92;;
75400;SDS011;63974;47.538;18.972;2023-06-10T10:34:46;3.87;;;2.83;;
75400;SDS011;63974;47.538;18.972;2023-06-10T10:37:54;4.25;;;2.78;;
75400;SDS011;63974;47.538;18.972;2023-06-10T10:40:57;2.70;;;2.50;;
75400;SDS011;63974;47.538;18.972;2023-06-10T10:44:02;3.40;;;2.95;;
75400;SDS011;63974;47.538;18.972;2023-06-10T10:47:08;3.58;;;2.67;;
75400;SDS011;63974;47.538;18.972;2023-06-10T10:50:15;3.57;;;2.13;;
75400;SDS011;63974;47.538;18.972;2023-06-10T10:53:20;3.50;;;2.25;;
75400;SDS011;63974;47.538;18.972;2023-06-10T10:56:23;2.53;;;2.25;;
75400;SDS011;63974;47.538;18.972;2023-06-10T10:59:42;2.70;;;2.22;;
75400;SDS011;63974;47.538;18.972;2023-06-10T11:03:07;2.80;;;2.60;;
75400;SDS011;63974;47.538;18.972;2023-06-10T11:06:16;2.63;;;2.43;;
75400;SDS011;63974;47.538;18.972;2023-06-10T11:09:27;3.00;;;2.28;;
75400;SDS011;63974;47.538;18.972;2023-06-10T11:15:49;2.10;;;1.90;;
75400;SDS011;63974;47.538;18.972;2023-06-10T11:18:53;2.13;;;1.93;;
75400;SDS011;63974;47.538;18.972;2023-06-10T11:21:57;2.30;;;2.03;;
75400;SDS011;63974;47.538;18.972;2023-06-10T11:25:02;2.22;;;2.05;;
75400;SDS011;63974;47.538;18.972;2023-06-10T11:28:17;2.40;;;2.20;;
75400;SDS011;63974;47.538;18.972;2023-06-10T11:31:27;2.60;;;2.40;;
75400;SDS011;63974;47.538;18.972;2023-06-10T11:34:31;2.60;;;2.40;;
75400;SDS011;63974;47.538;18.972;2023-06-10T11:37:34;2.63;;;2.43;;
75400;SDS011;63974;47.538;18.972;2023-06-10T11:40:38;3.78;;;2.83;;
75400;SDS011;63974;47.538;18.972;2023-06-10T11:43:44;2.55;;;2.35;;
75400;SDS011;63974;47.538;18.972;2023-06-10T11:46:48;3.45;;;2.67;;
75400;SDS011;63974;47.538;18.972;2023-06-10T11:49:57;3.07;;;2.87;;
75400;SDS011;63974;47.538;18.972;2023-06-10T11:53:01;3.30;;;3.10;;
75400;SDS011;63974;47.538;18.972;2023-06-10T11:56:03;3.55;;;3.25;;
75400;SDS011;63974;47.538;18.972;2023-06-10T11:59:06;3.15;;;2.95;;
75400;SDS011;63974;47.538;18.972;2023-06-10T12:02:16;3.33;;;2.90;;
75400;SDS011;63974;47.538;18.972;2023-06-10T12:05:21;3.07;;;2.87;;
75400;SDS011;63974;47.538;18.972;2023-06-10T12:08:24;3.07;;;2.80;;
75400;SDS011;63974;47.538;18.972;2023-06-10T12:11:28;4.45;;;3.40;;
75400;SDS011;63974;47.538;18.972;2023-06-10T12:18:00;2.85;;;2.65;;
75400;SDS011;63974;47.538;18.972;2023-06-10T12:21:03;3.13;;;2.93;;
75400;SDS011;63974;47.538;18.972;2023-06-10T12:24:27;3.27;;;3.07;;
75400;SDS011;63974;47.538;18.972;2023-06-10T12:27:30;3.55;;;3.25;;
75400;SDS011;63974;47.538;18.972;2023-06-10T12:30:34;3.13;;;2.88;;
75400;SDS011;63974;47.538;18.972;2023-06-10T12:33:37;3.90;;;3.55;;
75400;SDS011;63974;47.538;18.972;2023-06-10T12:36:39;3.73;;;2.90;;
75400;SDS011;63974;47.538;18.972;2023-06-10T12:39:51;4.27;;;3.63;;
75400;SDS011;63974;47.538;18.972;2023-06-10T12:42:59;4.07;;;3.45;;
75400;SDS011;63974;47.538;18.972;2023-06-10T12:46:11;3.60;;;3.30;;
75400;SDS011;63974;47.538;18.972;2023-06-10T12:49:21;3.92;;;3.63;;
75400;SDS011;63974;47.538;18.972;2023-06-10T12:52:24;3.57;;;3.27;;
75400;SDS011;63974;47.538;18.972;2023-06-10T12:55:27;3.70;;;3.33;;
75400;SDS011;63974;47.538;18.972;2023-06-10T12:58:31;3.40;;;2.95;;
75400;SDS011;63974;47.538;18.972;2023-06-10T13:01:33;3.15;;;2.85;;
75400;SDS011;63974;47.538;18.972;2023-06-10T13:04:36;3.40;;;3.10;;
75400;SDS011;63974;47.538;18.972;2023-06-10T13:07:39;3.63;;;3.33;;
75400;SDS011;63974;47.538;18.972;2023-06-10T13:10:44;3.53;;;3.23;;
75400;SDS011;63974;47.538;18.972;2023-06-10T13:13:46;5.40;;;3.22;;
75400;SDS011;63974;47.538;18.972;2023-06-10T13:16:50;3.72;;;3.40;;
75400;SDS011;63974;47.538;18.972;2023-06-10T13:19:52;4.13;;;3.72;;
75400;SDS011;63974;47.538;18.972;2023-06-10T13:22:55;4.45;;;4.00;;
75400;SDS011;63974;47.538;18.972;2023-06-10T13:25:58;4.90;;;4.40;;
75400;SDS011;63974;47.538;18.972;2023-06-10T13:29:01;4.68;;;4.13;;
75400;SDS011;63974;47.538;18.972;2023-06-10T13:32:04;6.20;;;4.38;;
75400;SDS011;63974;47.538;18.972;2023-06-10T13:35:07;5.30;;;4.72;;
75400;SDS011;63974;47.538;18.972;2023-06-10T13:38:11;6.15;;;5.55;;
75400;SDS011;63974;47.538;18.972;2023-06-10T13:41:15;4.57;;;4.03;;
75400;SDS011;63974;47.538;18.972;2023-06-10T13:44:18;5.78;;;3.30;;
75400;SDS011;63974;47.538;18.972;2023-06-10T13:47:20;3.70;;;2.60;;
75400;SDS011;63974;47.538;18.972;2023-06-10T13:50:24;3.60;;;2.80;;
75400;SDS011;63974;47.538;18.972;2023-06-10T13:53:27;5.05;;;4.22;;
75400;SDS011;63974;47.538;18.972;2023-06-10T13:56:30;6.73;;;4.30;;
75400;SDS011;63974;47.538;18.972;2023-06-10T13:59:33;5.85;;;4.53;;
75400;SDS011;63974;47.538;18.972;2023-06-10T14:02:36;8.02;;;6.15;;
75400;SDS011;63974;47.538;18.972;2023-06-10T14:05:39;7.80;;;6.00;;
75400;SDS011;63974;47.538;18.972;2023-06-10T14:08:42;8.43;;;6.33;;
75400;SDS011;63974;47.538;18.972;2023-06-10T14:11:45;9.13;;;6.53;;
75400;SDS011;63974;47.538;18.972;2023-06-10T14:14:48;10.00;;;6.80;;
75400;SDS011;63974;47.538;18.972;2023-06-10T14:17:51;8.85;;;6.75;;
75400;SDS011;63974;47.538;18.972;2023-06-10T14:20:53;9.05;;;6.95;;
75400;SDS011;63974;47.538;18.972;2023-06-10T14:23:56;8.02;;;6.50;;
75400;SDS011;63974;47.538;18.972;2023-06-10T14:26:59;8.40;;;7.00;;
75400;SDS011;63974;47.538;18.972;2023-06-10T14:30:02;8.15;;;6.45;;
75400;SDS011;63974;47.538;18.972;2023-06-10T14:33:06;7.03;;;6.00;;
75400;SDS011;63974;47.538;18.972;2023-06-10T14:36:11;8.13;;;6.60;;
75400;SDS011;63974;47.538;18.972;2023-06-10T14:39:14;6.90;;;6.20;;
75400;SDS011;63974;47.538;18.972;2023-06-10T14:42:17;6.30;;;5.43;;
75400;SDS011;63974;47.538;18.972;2023-06-10T14:45:20;6.55;;;5.63;;
75400;SDS011;63974;47.538;18.972;2023-06-10T14:48:23;6.90;;;6.10;;
75400;SDS011;63974;47.538;18.972;2023-06-10T14:51:26;6.20;;;5.40;;
75400;SDS011;63974;47.538;18.972;2023-06-10T14:54:28;6.13;;;5.53;;
75400;SDS011;63974;47.538;18.972;2023-06-10T14:57:31;6.20;;;5.37;;
75400;SDS011;63974;47.538;18.972;2023-06-10T15:00:38;6.70;;;5.80;;
75400;SDS011;63974;47.538;18.972;2023-06-10T15:03:40;5.25;;;4.75;;
75400;SDS011;63974;47.538;18.972;2023-06-10T15:06:43;6.15;;;4.82;;
75400;SDS011;63974;47.538;18.972;2023-06-10T15:09:46;4.60;;;4.10;;
75400;SDS011;63974;47.538;18.972;2023-06-10T15:12:49;5.93;;;4.10;;
75400;SDS011;63974;47.538;18.972;2023-06-10T15:15:58;6.90;;;3.95;;
75400;SDS011;63974;47.538;18.972;2023-06-10T15:19:05;6.95;;;3.90;;
75400;SDS011;63974;47.538;18.972;2023-06-10T15:22:10;4.28;;;3.35;;
75400;SDS011;63974;47.538;18.972;2023-06-10T15:25:15;2.60;;;2.40;;
75400;SDS011;63974;47.538;18.972;2023-06-10T15:28:32;3.53;;;3.23;;
75400;SDS011;63974;47.538;18.972;2023-06-10T15:31:35;3.80;;;3.35;;
75400;SDS011;63974;47.538;18.972;2023-06-10T15:34:37;3.78;;;2.90;;
75400;SDS011;63974;47.538;18.972;2023-06-10T15:37:40;4.55;;;4.15;;
75400;SDS011;63974;47.538;18.972;2023-06-10T15:40:43;4.77;;;4.37;;
75400;SDS011;63974;47.538;18.972;2023-06-10T15:43:46;4.83;;;4.53;;
75400;SDS011;63974;47.538;18.972;2023-06-10T15:46:49;3.95;;;3.65;;
75400;SDS011;63974;47.538;18.972;2023-06-10T15:49:52;4.68;;;3.65;;
75400;SDS011;63974;47.538;18.972;2023-06-10T15:52:55;4.10;;;3.80;;
75400;SDS011;63974;47.538;18.972;2023-06-10T15:55:58;3.95;;;3.38;;
75400;SDS011;63974;47.538;18.972;2023-06-10T15:59:00;3.50;;;3.20;;
75400;SDS011;63974;47.538;18.972;2023-06-10T16:02:03;3.65;;;3.22;;
75400;SDS011;63974;47.538;18.972;2023-06-10T16:05:07;3.70;;;3.40;;
75400;SDS011;63974;47.538;18.972;2023-06-10T16:08:10;5.25;;;4.22;;
75400;SDS011;63974;47.538;18.972;2023-06-10T16:11:13;4.38;;;3.97;;
75400;SDS011;63974;47.538;18.972;2023-06-10T16:14:16;4.53;;;4.13;;
75400;SDS011;63974;47.538;18.972;2023-06-10T16:17:18;4.40;;;4.00;;
75400;SDS011;63974;47.538;18.972;2023-06-10T16:20:21;4.50;;;4.10;;
75400;SDS011;63974;47.538;18.972;2023-06-10T16:23:24;7.15;;;5.13;;
75400;SDS011;63974;47.538;18.972;2023-06-10T16:26:27;4.70;;;4.20;;
75400;SDS011;63974;47.538;18.972;2023-06-10T16:29:30;4.23;;;3.83;;
75400;SDS011;63974;47.538;18.972;2023-06-10T16:32:33;4.28;;;3.67;;
75400;SDS011;63974;47.538;18.972;2023-06-10T16:35:36;4.75;;;3.70;;
75400;SDS011;63974;47.538;18.972;2023-06-10T16:38:39;4.40;;;4.00;;
75400;SDS011;63974;47.538;18.972;2023-06-10T16:41:42;4.83;;;3.40;;
75400;SDS011;63974;47.538;18.972;2023-06-10T16:44:45;4.40;;;3.77;;
75400;SDS011;63974;47.538;18.972;2023-06-10T16:47:48;4.57;;;4.18;;
75400;SDS011;63974;47.538;18.972;2023-06-10T16:50:51;5.13;;;4.18;;
75400;SDS011;63974;47.538;18.972;2023-06-10T16:53:53;4.97;;;3.80;;
75400;SDS011;63974;47.538;18.972;2023-06-10T16:56:56;5.47;;;3.60;;
75400;SDS011;63974;47.538;18.972;2023-06-10T16:59:59;4.60;;;4.00;;
75400;SDS011;63974;47.538;18.972;2023-06-10T17:03:02;4.82;;;3.97;;
75400;SDS011;63974;47.538;18.972;2023-06-10T17:06:05;4.65;;;3.97;;
75400;SDS011;63974;47.538;18.972;2023-06-10T17:09:08;6.25;;;3.92;;
75400;SDS011;63974;47.538;18.972;2023-06-10T17:12:10;5.00;;;3.90;;
75400;SDS011;63974;47.538;18.972;2023-06-10T17:15:13;6.20;;;4.50;;
75400;SDS011;63974;47.538;18.972;2023-06-10T17:18:17;6.50;;;4.25;;
75400;SDS011;63974;47.538;18.972;2023-06-10T17:21:20;5.13;;;4.68;;
75400;SDS011;63974;47.538;18.972;2023-06-10T17:24:23;5.30;;;4.80;;
75400;SDS011;63974;47.538;18.972;2023-06-10T17:27:26;7.20;;;4.77;;
75400;SDS011;63974;47.538;18.972;2023-06-10T17:30:29;6.17;;;4.70;;
75400;SDS011;63974;47.538;18.972;2023-06-10T17:33:32;8.05;;;4.78;;
75400;SDS011;63974;47.538;18.972;2023-06-10T17:36:35;4.93;;;4.35;;
75400;SDS011;63974;47.538;18.972;2023-06-10T17:39:38;6.28;;;4.47;;
75400;SDS011;63974;47.538;18.972;2023-06-10T17:42:40;6.10;;;3.80;;
75400;SDS011;63974;47.538;18.972;2023-06-10T17:45:43;4.97;;;3.73;;
75400;SDS011;63974;47.538;18.972;2023-06-10T17:48:46;4.78;;;3.67;;
75400;SDS011;63974;47.538;18.972;2023-06-10T17:51:50;5.70;;;3.85;;
75400;SDS011;63974;47.538;18.972;2023-06-10T17:54:53;4.72;;;3.55;;
75400;SDS011;63974;47.538;18.972;2023-06-10T17:57:55;5.47;;;4.03;;
75400;SDS011;63974;47.538;18.972;2023-06-10T18:00:58;5.60;;;4.00;;
75400;SDS011;63974;47.538;18.972;2023-06-10T18:04:04;4.43;;;3.70;;
75400;SDS011;63974;47.538;18.972;2023-06-10T18:07:07;5.20;;;4.15;;
75400;SDS011;63974;47.538;18.972;2023-06-10T18:10:10;6.10;;;4.20;;
75400;SDS011;63974;47.538;18.972;2023-06-10T18:13:13;7.50;;;4.37;;
75400;SDS011;63974;47.538;18.972;2023-06-10T18:16:16;5.80;;;4.83;;
75400;SDS011;63974;47.538;18.972;2023-06-10T18:19:20;8.52;;;5.53;;